Webkamera Lisätietoa Webcam


Yksityisiä sääasemia lähellä:

Sääasema Orivesi

Sääasema Muurame

Sääasema Jyväskylä

Sääasema Vihtavuori


Löydät sääaseman tiedot myös:

Finland Weather Exchange

European Weather Network

Weather Underground

AWEKAS

Windy.com

HAMweather, WeatherForYou, PWS Weather



Säätiedot lähimmiltä METAR asemilta

   
EFHA - Halli (Fin-Afb), Finland
Etäisyys asemalta: Kaakko 25 km
Päivitetty: 23.06.2024 14:50
Selkeää  
Selkeää  
   Tuuli: Itä 3.1 m/s
Tuuli: Itä 3.1 m/s
Lämpötila: 22°C
Kastepiste: 6°C
Kosteus: 36%
Ilmanpaine: 1010 hPa
Näkyvyys: Enemmän kuin 10 km
Pilvitiedot: Selkeää
EFHA 231150Z AUTO 09006KT 010V180 CAVOK 22/06 Q1010
EFJY - Jyvaskyla (Mil/Civ), Finland
Etäisyys asemalta: Koillinen 75 km
Päivitetty: 23.06.2024 14:50
Selkeää  
Selkeää  
   Tuuli: Kaakko 2.6 m/s
Tuuli: Kaakko 2.6 m/s
Lämpötila: 21°C
Kastepiste: 7°C
Kosteus: 40%
Ilmanpaine: 1011 hPa
Näkyvyys: Enemmän kuin 10 km
Pilvitiedot: Selkeää
EFJY 231150Z AUTO 14005KT 100V170 CAVOK 21/07 Q1011
EFTP - Tampere/Pirkkala, Finland
Etäisyys asemalta: Lounas 81 km
Päivitetty: 23.06.2024 14:50
Selkeää  
Selkeää  
   Tuuli: Itäkoillinen 1.5 m/s
Tuuli: Itäkoillinen 1.5 m/s
Lämpötila: 22°C
Kastepiste: 7°C
Kosteus: 38%
Ilmanpaine: 1010 hPa
Näkyvyys: Enemmän kuin 10 km
Pilvitiedot: Selkeää
EFTP 231150Z AUTO 06003KT 010V100 CAVOK 22/07 Q1010
EFSI - Seinajoki-Ilmajoki, Finland
Etäisyys asemalta: Luode 114 km
Päivitetty: 23.06.2024 14:50
Selkeää  
Selkeää  
   Tuuli: Kaakko 2.6 m/s
Tuuli: Kaakko 2.6 m/s
Lämpötila: 21°C
Kastepiste: 10°C
Kosteus: 50%
Ilmanpaine: 1010 hPa
Näkyvyys: Enemmän kuin 10 km
Pilvitiedot: Selkeää
EFSI 231150Z AUTO 14005KT 110V170 CAVOK 21/10 Q1010
EFMI - Mikkeli, Finland
Etäisyys asemalta: Itäkaakko 147 km
Päivitetty: 23.06.2024 14:50
Selkeää  
Selkeää  
   Tuuli: Itä 3.1 m/s
Tuuli: Itä 3.1 m/s
Lämpötila: 22°C
Kastepiste: 9°C
Kosteus: 44%
Ilmanpaine: 1010 hPa
Näkyvyys: Enemmän kuin 10 km
Pilvitiedot: Selkeää
EFMI 231150Z AUTO 10006KT 010V160 CAVOK 22/09 Q1010
EFPO - Pori (Mil/Civ), Finland
Etäisyys asemalta: Länsilounas 154 km
Päivitetty: 23.06.2024 14:50
Selkeää  
Selkeää  
   Tuuli: Pohjoisluode 4.1 m/s
Tuuli: Pohjoisluode 4.1 m/s
Lämpötila: 22°C
Kastepiste: 9°C
Kosteus: 44%
Ilmanpaine: 1010 hPa
Näkyvyys: Enemmän kuin 10 km
Pilvitiedot: Selkeää
EFPO 231150Z AUTO 34008KT 310V010 CAVOK 22/09 Q1010
EFUT - Utti (Fin-Afb), Finland
Etäisyys asemalta: Kaakko 180 km
Päivitetty: 23.06.2024 14:50
Selkeää  
Selkeää  
   Tuuli: Koillinen 2.6 m/s
Tuuli: Koillinen 2.6 m/s
Lämpötila: 22°C
Kastepiste: 5°C
Kosteus: 33%
Ilmanpaine: 1010 hPa
Näkyvyys: Enemmän kuin 10 km
Pilvitiedot: Selkeää
EFUT 231150Z AUTO 05005KT 010V140 CAVOK 22/05 Q1010
EFVA - Vaasa, Finland
Etäisyys asemalta: Luode 180 km
Päivitetty: 23.06.2024 14:50
Selkeää  
Selkeää  
   Tuuli: Itäkaakko 1.5 m/s
Tuuli: Itäkaakko 1.5 m/s
Lämpötila: 21°C
Kastepiste: 10°C
Kosteus: 50%
Ilmanpaine: 1010 hPa
Näkyvyys: Enemmän kuin 10 km
Pilvitiedot: Selkeää
EFVA 231150Z AUTO 11003KT 090V150 CAVOK 21/10 Q1010
EFHK - Helsinki/Vantaa, Finland
Etäisyys asemalta: Etelä 191 km
Päivitetty: 23.06.2024 14:50
Selkeää  
Selkeää  
   Tuuli: Kaakko 6.2 m/s
Tuuli: Kaakko 6.2 m/s
Lämpötila: 23°C
Kastepiste: 8°C
Kosteus: 38%
Ilmanpaine: 1010 hPa
Näkyvyys: Enemmän kuin 10 km
Pilvitiedot: Selkeää
EFHK 231150Z 14012KT 100V160 CAVOK 23/08 Q1010 NOSIG

Alkuperäinen skripti  Saratoga-weather.org Sovitettu myös templatelle  Weerstation Leuven

Laitteet joita käytämme:

Sääasema
Davis VP2

Sääasemaohjelma
Cumulus

Sääaseman palvelin
HP ProBook 6460b

Palveluntarjoaja
Radicenter

Davis VP2

Cumulus

HP ProBook 6460b

Radicenter




Flag Counter Cumulus Top Sites